Time;durP1;ratioP1;P1;durP2;ratioP2;P2;SDS_P1;SDS_P2;PMS_P1;PMS_P2;Temp;Humidity;BMP_temperature;BMP_pressure;BME280_temperature;BME280_humidity;BME280_pressure;Samples;Min_cycle;Max_cycle;Signal;HPM_P1;HPM_P2
2023/12/03 00:00:17;;;;;;;39.63;21.67;;;-0.30;99.90;;;-1.47;98.63;101075.03;5117239;28;20284;-72
2023/12/03 00:02:47;;;;;;;39.80;22.03;;;-0.30;99.90;;;-1.49;98.16;101076.03;5116989;28;20235;-72
2023/12/03 00:05:16;;;;;;;33.97;20.13;;;-0.20;99.90;;;-1.47;99.22;101072.41;5117357;28;20296;-72
2023/12/03 00:07:44;;;;;;;40.00;21.60;;;-0.20;99.90;;;-1.53;98.21;101067.44;5117075;28;20232;-72
2023/12/03 00:10:14;;;;;;;41.43;23.00;;;-0.30;99.90;;;-1.48;99.04;101064.59;5116886;28;20204;-72
2023/12/03 00:12:42;;;;;;;39.37;21.67;;;-0.40;99.90;;;-1.46;98.61;101081.13;5116841;28;20269;-72
2023/12/03 00:15:11;;;;;;;36.10;20.57;;;-0.30;99.90;;;-1.47;99.43;101084.69;5117082;28;20204;-72
2023/12/03 00:17:39;;;;;;;39.07;21.73;;;-0.30;99.90;;;-1.48;98.30;101081.22;5116371;28;20665;-72
2023/12/03 00:20:10;;;;;;;38.23;21.60;;;-0.30;99.90;;;-1.47;98.72;101082.06;5116766;28;20255;-72
2023/12/03 00:22:38;;;;;;;39.10;21.23;;;-0.30;99.90;;;-1.50;98.52;101087.44;5116434;28;20231;-72
2023/12/03 00:25:07;;;;;;;38.50;21.30;;;-0.40;99.90;;;-1.45;98.78;101085.47;5116388;28;20299;-72
2023/12/03 00:27:36;;;;;;;34.87;20.73;;;-0.30;99.90;;;-1.46;99.44;101081.13;5116548;28;20212;-72
2023/12/03 00:30:05;;;;;;;33.50;20.43;;;-0.30;99.90;;;-1.47;99.28;101084.69;5116587;28;20211;-72
2023/12/03 00:32:33;;;;;;;33.57;19.93;;;-0.30;99.90;;;-1.44;99.14;101079.28;5116085;28;20255;-72
2023/12/03 00:35:01;;;;;;;36.30;19.40;;;-0.30;99.90;;;-1.49;99.48;101076.88;5116508;28;20204;-72
2023/12/03 00:37:31;;;;;;;36.33;21.80;;;-0.20;99.90;;;-1.46;99.58;101079.34;5115960;28;20310;-72
2023/12/03 00:39:59;;;;;;;34.83;20.33;;;-0.30;99.90;;;-1.40;99.45;101078.19;5116375;28;20295;-72
2023/12/03 00:42:27;;;;;;;34.27;19.10;;;-0.20;99.90;;;-1.36;98.99;101075.34;5116022;28;20693;-72
2023/12/03 00:44:56;;;;;;;35.23;20.07;;;-0.10;99.90;;;-1.29;99.63;101075.88;5116500;28;20200;-72
2023/12/03 00:47:24;;;;;;;36.30;21.60;;;-0.10;99.90;;;-1.25;98.80;101077.44;5116207;28;20230;-72
2023/12/03 00:49:52;;;;;;;33.60;19.33;;;0.00;99.90;;;-1.21;99.09;101079.00;5116180;28;20339;-72
2023/12/03 00:52:20;;;;;;;33.33;19.77;;;0.00;99.90;;;-1.17;99.12;101080.53;5115823;28;20249;-72
2023/12/03 00:54:50;;;;;;;35.40;20.43;;;0.00;99.90;;;-1.17;98.24;101083.16;5116048;28;20227;-72
2023/12/03 00:57:18;;;;;;;31.83;19.67;;;0.00;99.90;;;-1.16;98.50;101084.84;5115965;28;20228;-72
2023/12/03 00:59:46;;;;;;;29.50;18.50;;;0.00;99.90;;;-1.20;98.19;101086.78;5115707;28;20204;-72
2023/12/03 01:02:14;;;;;;;33.47;18.53;;;0.00;99.90;;;-1.23;98.64;101086.94;5116083;28;20224;-73
2023/12/03 01:04:43;;;;;;;31.03;17.97;;;-0.10;99.90;;;-1.28;98.63;101082.84;5115917;28;20633;-73
2023/12/03 01:07:11;;;;;;;32.47;18.67;;;-0.10;99.90;;;-1.34;98.75;101085.78;5115884;28;20201;-73
2023/12/03 01:09:39;;;;;;;34.87;18.70;;;-0.20;99.90;;;-1.31;99.61;101083.84;5115840;28;20300;-73
2023/12/03 01:12:09;;;;;;;30.13;17.93;;;-0.20;99.90;;;-1.31;100.00;101091.75;5115693;28;20224;-73
2023/12/03 01:14:37;;;;;;;31.27;18.87;;;-0.20;99.90;;;-1.38;99.05;101087.72;5115364;28;20546;-74
2023/12/03 01:17:05;;;;;;;33.10;17.90;;;-0.20;99.90;;;-1.30;100.00;101092.59;5115592;28;20262;-74
2023/12/03 01:19:33;;;;;;;35.80;19.57;;;-0.20;99.90;;;-1.32;100.00;101091.81;5115612;28;20295;-74
2023/12/03 01:22:01;;;;;;;32.00;18.37;;;-0.20;99.90;;;-1.36;99.96;101088.47;5115485;28;20232;-74
2023/12/03 01:24:29;;;;;;;31.50;17.97;;;0.10;99.90;;;-1.38;99.40;101095.59;5115542;28;20613;-74
2023/12/03 01:26:58;;;;;;;30.00;18.17;;;-0.20;99.90;;;-1.40;99.94;101099.19;5115500;28;20207;-74
2023/12/03 01:29:27;;;;;;;28.30;16.17;;;-0.20;99.90;;;-1.36;99.53;101101.59;5115455;28;20214;-74
2023/12/03 01:31:57;;;;;;;29.67;17.07;;;-0.20;99.90;;;-1.36;99.75;101109.47;5115218;28;20228;-73
2023/12/03 01:34:25;;;;;;;31.43;17.90;;;-0.20;99.90;;;-1.35;99.94;101123.47;5115335;28;20200;-73
2023/12/03 01:36:53;;;;;;;29.87;18.00;;;-0.20;99.90;;;-1.28;100.00;101117.00;5115559;28;20207;-74
2023/12/03 01:39:22;;;;;;;28.87;16.97;;;-0.20;99.90;;;-1.29;100.00;101117.91;5115239;28;20227;-74
2023/12/03 01:41:52;;;;;;;26.00;16.40;;;-0.10;99.90;;;-1.24;100.00;101126.44;5115106;28;20224;-73
2023/12/03 01:44:21;;;;;;;27.53;16.20;;;0.00;99.90;;;-1.20;99.27;101125.34;5115366;28;20283;-75
2023/12/03 01:46:51;;;;;;;29.07;17.40;;;0.00;99.90;;;-1.16;99.18;101114.59;5114707;28;20294;-74
2023/12/03 01:49:19;;;;;;;26.57;16.37;;;0.00;99.90;;;-1.12;99.54;101126.66;5115055;28;20188;-74
2023/12/03 01:51:49;;;;;;;27.17;16.33;;;0.00;99.90;;;-1.09;99.29;101120.38;5114476;28;20357;-74
2023/12/03 01:54:17;;;;;;;28.93;15.93;;;0.00;99.90;;;-1.07;98.80;101124.66;5115056;28;20200;-75
2023/12/03 01:56:46;;;;;;;24.30;15.63;;;0.10;99.90;;;-1.06;99.36;101122.84;5115177;28;20574;-74
2023/12/03 01:59:14;;;;;;;27.03;16.87;;;0.20;99.90;;;-1.12;99.07;101124.03;5114710;28;20256;-73
2023/12/03 02:01:42;;;;;;;27.13;17.10;;;0.00;99.90;;;-1.10;99.42;101124.78;5114734;28;20232;-74
2023/12/03 02:04:12;;;;;;;29.27;16.70;;;0.20;99.90;;;-1.13;99.25;101124.94;5114958;28;20306;-74
2023/12/03 02:06:40;;;;;;;29.47;16.70;;;0.00;99.90;;;-1.16;100.00;101119.84;5114596;28;20230;-74
2023/12/03 02:09:08;;;;;;;30.00;17.33;;;0.00;99.90;;;-1.12;100.00;101125.81;5114710;28;20286;-74
2023/12/03 02:11:36;;;;;;;28.00;17.27;;;0.00;99.90;;;-1.12;99.82;101123.16;5113825;28;20204;-74
2023/12/03 02:14:05;;;;;;;30.53;18.37;;;0.10;99.90;;;-1.07;100.00;101131.69;5114244;28;20746;-73
2023/12/03 02:16:35;;;;;;;30.27;18.13;;;0.20;99.90;;;-1.06;99.66;101128.97;5114237;28;20643;-74
2023/12/03 02:19:03;;;;;;;35.10;18.50;;;0.00;99.90;;;-1.21;100.00;101139.41;5114379;28;20220;-74
2023/12/03 02:21:33;;;;;;;31.33;17.50;;;-0.10;99.90;;;-1.15;100.00;101136.47;5114340;28;20208;-74
2023/12/03 02:24:02;;;;;;;34.63;19.43;;;-0.10;99.90;;;-1.21;100.00;101136.78;5113989;28;20208;-74
2023/12/03 02:26:31;;;;;;;33.43;20.03;;;0.10;99.90;;;-1.19;100.00;101134.91;5114298;28;20295;-74
2023/12/03 02:28:59;;;;;;;33.20;19.70;;;0.00;99.90;;;-1.25;100.00;101151.00;5114294;28;20302;-74
2023/12/03 02:31:30;;;;;;;35.57;20.50;;;0.30;99.90;;;-1.34;100.00;101144.41;5113912;28;20299;-74
2023/12/03 02:34:09;;;;;;;37.03;21.10;;;-0.20;99.90;;;-1.28;100.00;101145.88;5114244;28;20192;-74
2023/12/03 02:36:38;;;;;;;36.87;20.13;;;-0.20;99.90;;;-1.24;100.00;101135.16;5114289;28;20206;-74
2023/12/03 02:39:08;;;;;;;38.37;20.73;;;-0.10;99.90;;;-1.25;100.00;101137.84;5113801;28;20705;-74
2023/12/03 02:41:36;;;;;;;39.83;20.57;;;-0.10;99.90;;;-1.20;100.00;101143.75;5114080;28;20199;-74
2023/12/03 02:44:04;;;;;;;40.87;22.73;;;-0.10;99.90;;;-1.17;100.00;101139.19;5114111;28;20235;-74
2023/12/03 02:46:33;;;;;;;39.47;22.07;;;-0.10;99.90;;;-1.13;100.00;101139.88;5114010;28;20207;-74
2023/12/03 02:49:01;;;;;;;40.63;21.67;;;0.00;99.90;;;-1.08;100.00;101143.13;5114260;28;20238;-74
2023/12/03 02:51:29;;;;;;;40.20;22.33;;;0.20;99.90;;;-1.12;100.00;101141.56;5113495;28;20216;-74
2023/12/03 02:53:57;;;;;;;40.00;22.13;;;0.00;99.90;;;-1.16;100.00;101148.75;5113957;28;20250;-73
2023/12/03 02:56:27;;;;;;;39.60;21.77;;;0.00;99.90;;;-1.13;100.00;101143.34;5113830;28;20204;-73
2023/12/03 02:58:55;;;;;;;38.47;22.73;;;0.00;99.90;;;-1.10;100.00;101144.97;5113831;28;20259;-73
2023/12/03 03:01:23;;;;;;;41.50;23.40;;;0.00;99.90;;;-1.06;100.00;101146.50;5113870;28;20295;-74
2023/12/03 03:03:51;;;;;;;41.33;23.30;;;0.10;99.90;;;-1.06;100.00;101144.72;5113774;28;20224;-74
2023/12/03 03:06:19;;;;;;;43.90;23.63;;;0.20;99.90;;;-1.01;100.00;101149.78;5113868;28;20241;-74
2023/12/03 03:08:49;;;;;;;43.30;23.20;;;0.10;99.90;;;-0.99;100.00;101153.16;5113771;28;20207;-74
2023/12/03 03:11:17;;;;;;;40.20;22.90;;;0.30;99.90;;;-0.98;100.00;101149.63;5114042;28;20208;-74
2023/12/03 03:13:47;;;;;;;43.93;22.83;;;0.10;99.90;;;-0.96;100.00;101153.03;5113653;28;20224;-73
2023/12/03 03:16:16;;;;;;;42.33;24.00;;;0.20;99.90;;;-0.94;100.00;101148.53;5113614;28;20210;-74
2023/12/03 03:18:44;;;;;;;43.00;24.87;;;0.20;99.90;;;-0.94;100.00;101145.91;5113363;28;20255;-74
2023/12/03 03:21:13;;;;;;;42.27;24.43;;;0.20;99.90;;;-0.92;100.00;101156.31;5113330;28;20618;-74
2023/12/03 03:23:41;;;;;;;40.67;23.00;;;0.30;99.90;;;-0.92;100.00;101149.28;5115562;28;20224;-74
2023/12/03 03:26:09;;;;;;;44.60;24.57;;;0.20;99.90;;;-0.92;100.00;101144.03;5117796;28;20291;-74
2023/12/03 03:28:37;;;;;;;40.23;23.10;;;0.20;99.90;;;-0.91;100.00;101148.38;5118048;28;20304;-74
2023/12/03 03:31:07;;;;;;;47.20;26.07;;;0.30;99.90;;;-0.93;100.00;101144.13;5117662;28;20649;-74
2023/12/03 03:33:35;;;;;;;49.73;26.30;;;0.20;99.90;;;-0.99;100.00;101153.16;5117638;28;20306;-74
2023/12/03 03:36:05;;;;;;;47.97;27.27;;;0.10;99.90;;;-1.06;100.00;101146.50;5117602;28;20240;-74
2023/12/03 03:38:33;;;;;;;51.30;27.17;;;0.10;99.90;;;-1.07;100.00;101150.94;5117490;28;20232;-74
2023/12/03 03:41:01;;;;;;;46.53;25.77;;;0.00;99.90;;;-1.03;100.00;101151.63;5117484;28;20210;-74
2023/12/03 03:43:29;;;;;;;48.40;26.20;;;0.20;99.90;;;-0.99;100.00;101153.16;5117100;28;20579;-74
2023/12/03 03:46:00;;;;;;;51.07;26.97;;;0.20;99.90;;;-0.96;100.00;101147.78;5117391;28;20299;-73
2023/12/03 03:48:30;;;;;;;48.17;25.93;;;0.20;99.90;;;-0.94;100.00;101151.16;5117454;28;20189;-74
2023/12/03 03:50:59;;;;;;;43.93;25.07;;;0.20;99.90;;;-0.92;100.00;101151.91;5117226;28;20192;-75
2023/12/03 03:53:27;;;;;;;49.57;26.87;;;0.20;99.90;;;-0.88;100.00;101150.00;5116935;28;20220;-74
2023/12/03 03:55:55;;;;;;;46.00;25.97;;;0.20;99.90;;;-0.89;100.00;101154.38;5117277;28;20321;-74
2023/12/03 03:58:23;;;;;;;47.57;27.80;;;0.20;99.90;;;-0.93;100.00;101158.13;5117038;28;20302;-74
2023/12/03 04:00:53;;;;;;;46.37;26.53;;;0.20;99.90;;;-0.90;100.00;101163.22;5117174;28;20216;-74
2023/12/03 04:03:21;;;;;;;53.73;28.43;;;0.20;99.90;;;-0.90;100.00;101165.00;5117037;28;20315;-74
2023/12/03 04:05:50;;;;;;;47.93;26.73;;;0.30;99.90;;;-0.88;100.00;101161.34;5117101;28;20245;-75
2023/12/03 04:08:19;;;;;;;49.27;29.00;;;0.30;99.90;;;-0.86;100.00;101159.53;5116991;28;20211;-75
2023/12/03 04:10:47;;;;;;;48.93;26.97;;;0.30;99.90;;;-0.83;100.00;101169.03;5116895;28;20300;-74
2023/12/03 04:13:15;;;;;;;48.77;27.70;;;0.30;99.90;;;-0.84;100.00;101162.91;5116818;28;20314;-74
2023/12/03 04:15:43;;;;;;;49.23;26.67;;;0.30;99.90;;;-0.82;100.00;101160.22;5116893;28;20211;-75
2023/12/03 04:18:14;;;;;;;45.43;26.13;;;0.40;99.90;;;-0.78;100.00;101162.59;5116483;28;20597;-75
2023/12/03 04:20:42;;;;;;;45.30;26.77;;;0.30;99.90;;;-0.77;100.00;101155.56;5116665;28;20208;-74
2023/12/03 04:23:12;;;;;;;46.43;26.87;;;0.40;99.90;;;-0.75;100.00;101159.81;5116672;28;20324;-74
2023/12/03 04:25:40;;;;;;;46.57;27.93;;;0.40;99.90;;;-0.76;100.00;101155.50;5116525;28;20710;-74
2023/12/03 04:28:09;;;;;;;51.93;29.23;;;0.40;99.90;;;-0.75;100.00;101165.06;5116614;28;20200;-74
2023/12/03 04:30:37;;;;;;;52.07;27.73;;;0.40;99.90;;;-0.75;100.00;101170.31;5116232;28;20662;-74
2023/12/03 04:33:05;;;;;;;50.77;28.33;;;0.40;99.90;;;-0.75;100.00;101170.31;5117506;28;20224;-74
2023/12/03 04:35:33;;;;;;;48.40;27.83;;;0.50;99.90;;;-0.77;100.00;101163.44;5115691;28;20208;-75
2023/12/03 04:38:02;;;;;;;53.60;28.63;;;0.30;99.90;;;-0.79;100.00;101166.16;5116500;28;20199;-75
2023/12/03 04:40:31;;;;;;;50.30;27.67;;;0.30;99.90;;;-0.75;100.00;101164.19;5116516;28;20331;-74
2023/12/03 04:42:59;;;;;;;50.10;27.43;;;0.40;99.90;;;-0.74;100.00;101164.13;5115944;28;20701;-74
2023/12/03 04:45:27;;;;;;;53.60;29.90;;;0.40;99.90;;;-0.76;100.00;101159.91;5116967;28;20262;-74
2023/12/03 04:47:55;;;;;;;48.27;28.00;;;0.40;99.90;;;-0.73;100.00;101165.84;5116207;28;20288;-75
2023/12/03 04:50:24;;;;;;;48.63;27.80;;;0.40;99.90;;;-0.74;100.00;101161.50;5116184;28;20575;-74
2023/12/03 04:52:52;;;;;;;54.70;29.67;;;0.40;99.90;;;-0.75;100.00;101172.94;5115907;28;20323;-74
2023/12/03 04:55:20;;;;;;;52.30;29.17;;;0.40;99.90;;;-0.75;100.00;101172.94;5116031;28;20304;-73
2023/12/03 04:57:49;;;;;;;52.87;28.90;;;0.40;99.90;;;-0.79;100.00;101174.06;5116212;28;20238;-74
2023/12/03 05:00:20;;;;;;;53.53;27.97;;;0.40;99.90;;;-0.78;100.00;101175.72;5116342;28;20298;-74
2023/12/03 05:02:49;;;;;;;57.37;30.60;;;0.30;99.90;;;-0.92;100.00;101175.56;5115597;28;20725;-72
2023/12/03 05:05:17;;;;;;;52.93;30.80;;;0.30;99.90;;;-0.92;100.00;101186.09;5115883;28;20277;-74
2023/12/03 05:07:45;;;;;;;51.40;29.13;;;0.30;99.90;;;-0.88;100.00;101184.16;5115968;28;20299;-74
2023/12/03 05:10:13;;;;;;;49.07;27.87;;;0.40;99.90;;;-0.88;100.00;101187.63;5115491;28;20207;-74
2023/12/03 05:12:41;;;;;;;51.83;30.70;;;0.30;99.90;;;-0.83;100.00;101190.91;5115514;28;20771;-73
2023/12/03 05:15:11;;;;;;;51.93;30.10;;;0.30;99.90;;;-0.81;100.00;101190.81;5115777;28;20260;-74
2023/12/03 05:17:40;;;;;;;53.83;29.37;;;0.30;99.90;;;-0.83;100.00;101193.53;5115682;28;20235;-74
2023/12/03 05:20:10;;;;;;;54.83;30.07;;;0.40;99.90;;;-0.79;100.00;101187.19;5115528;28;20263;-74
2023/12/03 05:22:38;;;;;;;51.73;29.97;;;0.30;99.90;;;-0.78;100.00;101190.66;5115540;28;20307;-74
2023/12/03 05:25:08;;;;;;;53.17;30.27;;;0.30;99.90;;;-0.80;100.00;101182.88;5115161;28;20765;-74
2023/12/03 05:27:38;;;;;;;55.97;31.33;;;0.30;99.90;;;-0.86;100.00;101191.06;5115704;28;20235;-74
2023/12/03 05:30:08;;;;;;;56.40;30.60;;;0.30;99.90;;;-0.88;100.00;101195.53;5115449;28;20246;-75
2023/12/03 05:32:37;;;;;;;55.97;30.63;;;0.20;99.90;;;-0.90;100.00;101200.03;5115560;28;20263;-74
2023/12/03 05:35:06;;;;;;;57.37;32.27;;;0.20;99.90;;;-0.89;100.00;101200.88;5115182;28;20200;-74
2023/12/03 05:37:34;;;;;;;57.87;32.07;;;0.20;99.90;;;-0.85;100.00;101203.25;5114923;28;20575;-74
2023/12/03 05:40:04;;;;;;;56.13;31.23;;;0.30;99.90;;;-0.86;100.00;101205.97;5115135;28;20268;-74
2023/12/03 05:42:32;;;;;;;57.90;32.30;;;0.30;99.90;;;-0.82;100.00;101212.78;5115117;28;20228;-74
2023/12/03 05:45:00;;;;;;;62.53;32.63;;;0.30;99.90;;;-0.84;100.00;101206.75;5114718;28;20212;-74
2023/12/03 05:47:28;;;;;;;55.47;31.17;;;0.30;99.90;;;-0.84;100.00;101210.22;5113995;28;20200;-74
2023/12/03 05:50:00;;;;;;;57.87;32.70;;;0.30;99.90;;;-0.89;100.00;101214.03;5115100;28;20273;-75
2023/12/03 05:52:29;;;;;;;58.40;31.80;;;0.30;99.90;;;-0.86;100.00;101217.34;5114521;28;20307;-75
2023/12/03 05:54:57;;;;;;;56.67;29.70;;;0.30;99.90;;;-0.91;100.00;101219.34;5114903;28;20235;-74
2023/12/03 05:57:29;;;;;;;63.03;32.67;;;0.20;99.90;;;-0.86;100.00;101229.63;5114830;28;20243;-74
2023/12/03 05:59:57;;;;;;;60.47;32.87;;;-0.20;99.90;;;-0.86;100.00;101224.38;5114515;28;20677;-74
2023/12/03 06:02:25;;;;;;;61.73;32.17;;;0.30;99.90;;;-0.91;100.00;101221.97;5114739;28;20234;-74
2023/12/03 06:04:53;;;;;;;63.33;32.53;;;0.20;99.90;;;-0.91;100.00;101229.00;5114832;28;20296;-74
2023/12/03 06:07:23;;;;;;;60.10;33.80;;;0.50;99.90;;;-0.87;100.00;101236.66;5114642;28;20208;-74
2023/12/03 06:09:51;;;;;;;60.07;32.47;;;0.30;99.90;;;-0.83;100.00;101232.97;5114689;28;20207;-74
2023/12/03 06:12:19;;;;;;;59.43;34.53;;;0.40;99.90;;;-0.83;100.00;101238.22;5114568;28;20231;-75
2023/12/03 06:14:47;;;;;;;55.10;31.23;;;0.40;99.90;;;-0.83;100.00;101232.97;5114549;28;20204;-75
2023/12/03 06:17:17;;;;;;;57.53;31.97;;;0.30;99.90;;;-0.81;100.00;101236.34;5114786;28;20199;-74
2023/12/03 06:19:45;;;;;;;55.37;30.63;;;0.40;99.90;;;-0.79;100.00;101234.53;5114350;28;20253;-74
2023/12/03 06:22:14;;;;;;;59.70;32.33;;;0.30;99.90;;;-0.79;100.00;101246.81;5114347;28;20224;-74
2023/12/03 06:24:43;;;;;;;57.50;33.23;;;0.30;99.90;;;-0.78;100.00;101241.47;5114053;28;20236;-74
2023/12/03 06:27:11;;;;;;;61.57;32.20;;;0.60;99.90;;;-0.76;100.00;101246.66;5114358;28;20204;-74
2023/12/03 06:29:39;;;;;;;56.83;32.80;;;0.50;99.90;;;-0.75;100.00;101246.56;5114271;28;20249;-74
2023/12/03 06:32:08;;;;;;;59.83;33.10;;;0.40;99.90;;;-0.76;100.00;101255.41;5114195;28;20224;-74
2023/12/03 06:34:37;;;;;;;60.33;33.10;;;0.40;99.90;;;-0.72;100.00;101251.66;5114269;28;20253;-74
2023/12/03 06:37:06;;;;;;;55.00;31.80;;;0.40;99.90;;;-0.72;100.00;101249.03;5114543;28;20211;-74
2023/12/03 06:39:34;;;;;;;58.20;32.97;;;0.50;99.90;;;-0.72;100.00;101249.03;5114132;28;20227;-73
2023/12/03 06:42:04;;;;;;;52.67;31.50;;;0.40;99.90;;;-0.71;100.00;101248.13;5113969;28;20227;-73
2023/12/03 06:44:32;;;;;;;59.50;32.73;;;0.40;99.90;;;-0.70;100.00;101252.44;5114096;28;20295;-74
2023/12/03 06:47:11;;;;;;;73.43;36.23;;;0.40;99.90;;;-0.67;100.00;101261.97;5114651;28;20196;-74
2023/12/03 06:49:42;;;;;;;78.07;38.27;;;0.50;99.90;;;-0.63;100.00;101263.50;5114078;28;20208;-74
2023/12/03 06:52:10;;;;;;;80.30;39.30;;;0.50;99.90;;;-0.65;100.00;101265.38;5114103;28;20286;-74
2023/12/03 06:54:38;;;;;;;91.63;42.77;;;0.50;99.90;;;-0.64;100.00;101262.66;5113652;28;20701;-74
2023/12/03 06:57:08;;;;;;;91.57;41.17;;;0.50;99.90;;;-0.60;100.00;101274.72;5113902;28;20211;-74
2023/12/03 06:59:36;;;;;;;74.47;36.80;;;0.60;99.90;;;-0.59;100.00;101273.81;5113523;28;20235;-74
2023/12/03 07:02:04;;;;;;;62.33;34.57;;;0.60;99.90;;;-0.58;100.00;101280.75;5114022;28;20236;-74
2023/12/03 07:04:33;;;;;;;66.50;34.47;;;0.60;99.90;;;-0.57;100.00;101282.47;5113793;28;20296;-74
2023/12/03 07:07:05;;;;;;;63.23;34.13;;;0.60;99.90;;;-0.55;100.00;101291.13;5114039;28;20303;-73
2023/12/03 07:09:33;;;;;;;61.37;34.17;;;0.60;99.90;;;-0.54;100.00;101298.09;5113408;28;20576;-74
2023/12/03 07:12:09;;;;;;;63.70;33.87;;;0.60;99.90;;;-0.53;100.00;101294.53;5113805;28;20220;-73
2023/12/03 07:14:37;;;;;;;66.87;35.33;;;0.60;99.90;;;-0.51;100.00;101297.94;5113672;28;20204;-74
2023/12/03 07:17:06;;;;;;;65.47;33.57;;;0.70;99.90;;;-0.48;100.00;101301.34;5113701;28;20208;-73
2023/12/03 07:19:34;;;;;;;65.50;35.77;;;0.60;99.90;;;-0.48;100.00;101302.22;5113696;28;20208;-74
2023/12/03 07:22:02;;;;;;;63.40;33.90;;;0.80;99.90;;;-0.49;100.00;101304.91;5113587;28;20228;-74
2023/12/03 07:24:31;;;;;;;62.70;34.87;;;0.70;99.90;;;-0.48;100.00;101311.88;5113732;28;20583;-74
2023/12/03 07:26:59;;;;;;;67.60;35.33;;;0.60;99.90;;;-0.47;100.00;101310.94;5113554;28;20208;-74
2023/12/03 07:29:28;;;;;;;69.00;35.50;;;0.60;99.90;;;-0.48;100.00;101317.13;5113305;28;20243;-74
2023/12/03 07:31:56;;;;;;;71.10;34.80;;;0.70;99.90;;;-0.51;100.00;101321.59;5113207;28;20780;-73
2023/12/03 07:34:25;;;;;;;71.30;35.47;;;0.70;99.90;;;-0.51;100.00;101321.59;5113468;28;20295;-74
2023/12/03 07:36:54;;;;;;;81.17;38.10;;;1.00;99.90;;;-0.52;100.00;101330.44;5113600;28;20616;-74
2023/12/03 07:39:23;;;;;;;73.73;35.70;;;0.60;99.90;;;-0.47;100.00;101324.06;5114085;28;20221;-74
2023/12/03 07:41:53;;;;;;;74.07;37.20;;;0.70;99.90;;;-0.47;100.00;101342.50;5113133;28;20725;-74
2023/12/03 07:44:22;;;;;;;74.33;37.40;;;0.70;99.90;;;-0.46;100.00;101333.69;5113271;28;20257;-74
2023/12/03 07:46:54;;;;;;;71.53;37.67;;;0.70;99.90;;;-0.45;100.00;101338.03;5113505;28;20200;-74
2023/12/03 07:49:22;;;;;;;71.60;36.33;;;0.70;99.90;;;-0.43;100.00;101336.16;5113804;28;20192;-74
2023/12/03 07:51:50;;;;;;;74.83;37.80;;;0.90;99.90;;;-0.42;100.00;101335.22;5113157;28;20228;-74
2023/12/03 07:54:19;;;;;;;75.70;37.30;;;0.70;99.90;;;-0.45;100.00;101346.78;5113397;28;20201;-74
2023/12/03 07:56:47;;;;;;;75.23;37.17;;;0.80;99.90;;;-0.41;100.00;101342.22;5113548;28;20207;-74
2023/12/03 07:59:15;;;;;;;76.90;38.33;;;0.70;99.90;;;-0.40;100.00;101343.88;5113383;28;20204;-74
2023/12/03 08:01:43;;;;;;;66.37;34.83;;;0.80;99.90;;;-0.38;100.00;101350.81;5113136;28;20221;-74
2023/12/03 08:04:12;;;;;;;75.40;37.47;;;0.80;99.90;;;-0.39;100.00;101353.50;5113306;28;20204;-74
2023/12/03 08:06:41;;;;;;;74.33;37.97;;;0.80;99.90;;;-0.42;100.00;101356.28;5113354;28;20230;-74
2023/12/03 08:09:09;;;;;;;70.30;36.57;;;0.80;99.90;;;-0.40;100.00;101357.03;5113271;28;20215;-74
2023/12/03 08:11:37;;;;;;;75.53;37.57;;;0.70;99.90;;;-0.41;100.00;101345.66;5116390;28;20631;-74
2023/12/03 08:14:05;;;;;;;78.10;37.50;;;0.70;99.90;;;-0.42;100.00;101348.38;5117187;28;20204;-74
2023/12/03 08:16:34;;;;;;;78.57;36.57;;;0.80;99.90;;;-0.43;100.00;101357.19;5116834;28;20244;-74
2023/12/03 08:19:02;;;;;;;74.13;37.03;;;0.70;99.90;;;-0.39;100.00;101358.75;5116763;28;20295;-74
2023/12/03 08:21:32;;;;;;;77.27;38.13;;;1.00;99.90;;;-0.37;100.00;101363.00;5116618;28;20219;-74
2023/12/03 08:24:01;;;;;;;74.07;36.63;;;0.80;99.90;;;-0.37;100.00;101363.00;5116827;28;20193;-74
2023/12/03 08:26:29;;;;;;;73.37;36.77;;;0.70;99.90;;;-0.35;100.00;101360.31;5116728;28;20227;-74
2023/12/03 08:28:57;;;;;;;70.73;34.57;;;0.80;99.90;;;-0.34;100.00;101354.13;5116828;28;20208;-75
2023/12/03 08:31:27;;;;;;;75.67;37.43;;;0.80;99.90;;;-0.31;100.00;101362.69;5180627;22;20221;-70
2023/12/03 08:33:55;;;;;;;81.10;38.67;;;0.90;99.90;;;-0.31;100.00;101361.88;5076004;28;20247;-70
2023/12/03 08:36:24;;;;;;;82.47;39.47;;;0.80;99.90;;;-0.30;100.00;101359.16;5076337;28;20221;-70
2023/12/03 08:38:54;;;;;;;85.17;38.60;;;0.90;99.90;;;-0.29;100.00;101360.00;5075598;28;20220;-70
2023/12/03 08:41:22;;;;;;;77.77;37.63;;;0.80;99.90;;;-0.32;100.00;101360.16;5075730;28;20260;-70
2023/12/03 08:43:50;;;;;;;90.77;39.00;;;1.00;99.90;;;-0.33;100.00;101358.44;5076669;28;20631;-70
2023/12/03 08:46:21;;;;;;;85.97;38.90;;;0.90;99.90;;;-0.30;100.00;101368.81;5075515;28;20740;-70
2023/12/03 08:48:49;;;;;;;80.27;38.17;;;0.90;99.90;;;-0.27;100.00;101366.88;5075707;28;20251;-70
2023/12/03 08:51:17;;;;;;;73.30;34.97;;;0.90;99.90;;;-0.24;100.00;101366.72;5075358;28;20706;-70
2023/12/03 08:53:46;;;;;;;78.17;36.23;;;0.90;99.90;;;-0.22;100.00;101374.56;5075310;28;20239;-70
2023/12/03 08:56:15;;;;;;;77.10;35.60;;;1.10;99.90;;;-0.21;100.00;101377.13;5075603;28;20271;-70
2023/12/03 08:58:43;;;;;;;70.63;35.20;;;0.90;99.90;;;-0.18;100.00;101371.72;5075545;28;20296;-70
2023/12/03 09:01:12;;;;;;;72.00;34.50;;;1.00;99.90;;;-0.18;100.00;101378.75;5075410;28;20251;-70
2023/12/03 09:03:40;;;;;;;73.80;36.10;;;1.00;99.90;;;-0.16;100.00;101382.13;5075470;28;20227;-70
2023/12/03 09:06:10;;;;;;;70.43;34.50;;;1.00;99.90;;;-0.16;100.00;101385.63;5075036;28;20618;-70
2023/12/03 09:08:38;;;;;;;73.27;35.37;;;1.00;99.90;;;-0.14;100.00;101385.56;5075313;28;20293;-70
2023/12/03 09:11:11;;;;;;;80.37;36.37;;;1.20;99.90;;;-0.12;100.00;101389.81;5075230;28;20247;-70
2023/12/03 09:13:41;;;;;;;72.17;35.30;;;1.10;99.90;;;-0.12;100.00;101394.22;5075257;28;20201;-70
2023/12/03 09:16:10;;;;;;;64.47;33.37;;;1.00;99.90;;;-0.10;100.00;101397.63;5075189;28;20205;-71
2023/12/03 09:18:39;;;;;;;64.57;34.43;;;1.10;99.90;;;-0.08;100.00;101401.91;5075149;28;20289;-71
2023/12/03 09:21:11;;;;;;;65.13;32.83;;;1.10;99.90;;;-0.06;100.00;101405.28;5074772;28;20210;-71
2023/12/03 09:23:40;;;;;;;60.43;32.90;;;1.10;99.90;;;-0.08;100.00;101401.03;5075217;28;20236;-70
2023/12/03 09:26:09;;;;;;;66.93;35.07;;;1.10;99.90;;;-0.07;100.00;101408.03;5074681;28;20558;-71
2023/12/03 09:28:37;;;;;;;71.60;33.63;;;1.20;99.90;;;-0.06;100.00;101407.06;5074923;28;20259;-70
2023/12/03 09:31:07;;;;;;;71.00;34.83;;;1.10;99.90;;;-0.06;100.00;101414.97;5074803;28;20296;-70
2023/12/03 09:33:35;;;;;;;72.73;35.30;;;1.10;99.90;;;-0.07;100.00;101419.38;5074592;28;20232;-70
2023/12/03 09:36:05;;;;;;;67.90;33.63;;;1.10;99.90;;;-0.05;100.00;101427.22;5074791;28;20205;-70
2023/12/03 09:38:34;;;;;;;61.60;32.27;;;1.10;99.90;;;-0.05;100.00;101427.22;5074511;28;20663;-70
2023/12/03 09:41:09;;;;;;;69.87;36.40;;;1.10;99.90;;;-0.02;100.00;101437.56;5074668;28;20205;-71
2023/12/03 09:43:41;;;;;;;67.43;33.70;;;1.10;99.90;;;-0.01;100.00;101436.66;5074580;28;20216;-71
2023/12/03 09:46:13;;;;;;;64.50;32.27;;;1.10;99.90;;;0.01;100.00;101437.41;5074577;28;20225;-71
2023/12/03 09:48:44;;;;;;;62.07;31.13;;;1.20;99.90;;;0.01;100.00;101437.41;5074592;28;20186;-71
2023/12/03 09:51:13;;;;;;;61.97;32.97;;;1.20;99.90;;;0.02;100.00;101436.50;5074486;28;20196;-71
2023/12/03 09:53:45;;;;;;;67.00;32.90;;;1.20;99.90;;;0.01;100.00;101447.94;5074149;28;20201;-71
2023/12/03 09:56:14;;;;;;;66.00;33.93;;;1.20;99.90;;;0.02;100.00;101439.13;5074428;28;20190;-70
2023/12/03 09:58:47;;;;;;;65.53;33.40;;;1.20;99.90;;;0.02;100.00;101449.66;5074378;28;20193;-70
2023/12/03 10:01:17;;;;;;;58.70;30.00;;;1.20;99.90;;;0.03;100.00;101450.53;5073974;28;20684;-70
2023/12/03 10:03:46;;;;;;;69.37;36.77;;;1.20;99.90;;;0.03;100.00;101440.00;5074236;28;20225;-70
2023/12/03 10:06:16;;;;;;;72.17;36.23;;;1.20;99.90;;;0.01;100.00;101447.94;5074176;28;20297;-70